Time;durP1;ratioP1;P1;durP2;ratioP2;P2;SDS_P1;SDS_P2;PMS_P1;PMS_P2;Temp;Humidity;BMP_temperature;BMP_pressure;BME280_temperature;BME280_humidity;BME280_pressure;Samples;Min_cycle;Max_cycle;Signal;HPM_P1;HPM_P2
2023/12/11 00:00:26;;;;;;;59.53;34.13;;;;;;;3.23;66.32;99814.03;4468864;32;33565;-79
2023/12/11 00:02:57;;;;;;;56.67;35.30;;;;;;;3.02;66.67;99810.53;4468027;32;33927;-79
2023/12/11 00:05:27;;;;;;;57.50;38.28;;;;;;;3.04;66.36;99800.84;4467554;32;33667;-79
2023/12/11 00:07:57;;;;;;;51.22;35.55;;;;;;;3.07;66.02;99787.63;4468290;32;33452;-79
2023/12/11 00:10:26;;;;;;;56.70;33.83;;;;;;;2.97;66.10;99788.94;4467950;32;34429;-79
2023/12/11 00:12:56;;;;;;;51.47;32.42;;;;;;;2.95;65.92;99781.13;4468083;32;33564;-79
2023/12/11 00:15:25;;;;;;;64.28;29.25;;;;;;;2.94;65.94;99783.81;4466556;32;34865;-79
2023/12/11 00:17:58;;;;;;;54.95;31.95;;;;;;;3.05;65.33;99773.75;4468188;32;33666;-79
2023/12/11 00:20:27;;;;;;;50.22;28.10;;;;;;;2.71;66.24;99784.72;4468321;32;33926;-79
2023/12/11 00:22:58;;;;;;;56.88;30.70;;;;;;;2.46;66.73;99776.97;4467853;32;34230;-79
2023/12/11 00:25:28;;;;;;;65.72;27.95;;;;;;;2.48;66.79;99775.13;4467310;32;33439;-79
2023/12/11 00:27:57;;;;;;;48.17;30.37;;;;;;;2.54;66.76;99766.22;4468157;32;34019;-79
2023/12/11 00:30:26;;;;;;;42.90;26.30;;;;;;;2.53;66.73;99754.03;4468228;32;33674;-79
2023/12/11 00:32:56;;;;;;;46.92;27.20;;;;;;;2.71;65.89;99748.94;4467873;32;33528;-79
2023/12/11 00:35:26;;;;;;;45.80;27.83;;;;;;;2.53;66.38;99754.88;4465211;32;35095;-79
2023/12/11 00:37:55;;;;;;;50.28;28.05;;;;;;;2.50;66.56;99762.00;4468006;32;33259;-79
2023/12/11 00:40:25;;;;;;;36.80;24.30;;;;;;;2.36;66.97;99758.13;4467933;32;34034;-79
2023/12/11 00:42:54;;;;;;;46.00;26.73;;;;;;;2.49;66.87;99755.06;4467658;32;34182;-79
2023/12/11 00:45:24;;;;;;;44.03;27.67;;;;;;;2.58;66.15;99750.34;4467482;32;34572;-79
2023/12/11 00:47:53;;;;;;;46.13;28.08;;;;;;;2.19;67.46;99750.09;4467796;32;33326;-79
2023/12/11 00:50:26;;;;;;;61.35;31.30;;;;;;;2.37;67.26;99744.13;4467536;32;33578;-79
2023/12/11 00:52:55;;;;;;;62.30;35.17;;;;;;;2.20;68.06;99742.16;4453049;32;34193;-79
2023/12/11 00:55:25;;;;;;;50.55;29.60;;;;;;;2.28;68.42;99741.03;4465016;32;34138;-79
2023/12/11 00:57:54;;;;;;;49.67;27.83;;;;;;;2.08;68.90;99742.63;4467588;32;34761;-79
2023/12/11 01:00:23;;;;;;;65.57;25.88;;;;;;;2.07;68.77;99740.09;4467823;32;33854;-79
2023/12/11 01:02:55;;;;;;;78.90;28.15;;;;;;;1.96;69.60;99733.47;4467458;32;34892;-79
2023/12/11 01:05:26;;;;;;;77.95;32.10;;;;;;;2.12;68.88;99739.00;4466900;32;34072;-79
2023/12/11 01:07:56;;;;;;;62.45;24.52;;;;;;;2.04;69.46;99743.66;4467696;32;33210;-79
2023/12/11 01:10:26;;;;;;;78.87;25.70;;;;;;;2.26;69.01;99743.72;4467385;32;33877;-79
2023/12/11 01:12:55;;;;;;;50.22;24.27;;;;;;;2.27;69.25;99748.03;4467402;32;33615;-79
2023/12/11 01:15:25;;;;;;;88.32;28.20;;;;;;;2.35;68.97;99739.91;4465303;32;34032;-79
2023/12/11 01:17:54;;;;;;;85.65;26.48;;;;;;;2.14;69.67;99745.03;4467900;32;34322;-79
2023/12/11 01:20:24;;;;;;;179.00;34.50;;;;;;;2.27;69.77;99753.25;4467367;32;33660;-79
2023/12/11 01:22:55;;;;;;;76.60;24.70;;;;;;;2.16;70.13;99743.19;4467221;32;33701;-79
2023/12/11 01:25:23;;;;;;;150.23;31.33;;;;;;;1.95;71.04;99752.69;4466782;32;34406;-79
2023/12/11 01:27:55;;;;;;;132.53;32.43;;;;;;;2.00;70.96;99742.06;4467476;32;33151;-79
2023/12/11 01:30:24;;;;;;;96.82;24.30;;;;;;;2.28;70.27;99741.87;4466480;32;34158;-79
2023/12/11 01:32:53;;;;;;;152.50;34.00;;;;;;;2.22;70.54;99735.13;4467335;32;33540;-79
2023/12/11 01:35:23;;;;;;;152.80;30.23;;;;;;;1.76;72.03;99733.34;4464459;32;33387;-79
2023/12/11 01:37:53;;;;;;;112.88;29.08;;;;;;;2.27;70.69;99731.50;4467240;32;33759;-79
2023/12/11 01:40:23;;;;;;;74.00;24.00;;;;;;;2.07;71.29;99721.78;4467070;32;33933;-79
2023/12/11 01:42:52;;;;;;;80.18;26.00;;;;;;;1.77;72.34;99713.31;4467107;32;33516;-79
2023/12/11 01:45:41;;;;;;;116.47;29.27;;;;;;;1.96;71.77;99702.13;4466981;32;34054;-79
2023/12/11 01:48:13;;;;;;;132.80;30.73;;;;;;;2.01;71.93;99699.34;4467082;32;49799;-79
2023/12/11 01:50:43;;;;;;;71.50;25.10;;;;;;;2.08;71.81;99705.19;4466629;32;34726;-79
2023/12/11 01:53:13;;;;;;;114.05;28.80;;;;;;;1.93;72.60;99701.38;4466535;32;34954;-79
2023/12/11 01:55:43;;;;;;;136.15;33.80;;;;;;;2.00;72.14;99692.41;4464667;32;33992;-79
2023/12/11 01:58:14;;;;;;;83.75;27.62;;;;;;;2.16;71.70;99696.16;4467072;32;33271;-79
2023/12/11 02:00:44;;;;;;;65.93;27.55;;;;;;;1.86;72.82;99689.44;4466870;32;33765;-79
2023/12/11 02:03:15;;;;;;;89.75;31.33;;;;;;;2.33;71.58;99694.66;4467194;32;35469;-79
2023/12/11 02:05:47;;;;;;;87.15;24.17;;;;;;;2.49;71.08;99689.66;4466144;32;34688;-79
2023/12/11 02:08:18;;;;;;;86.63;29.17;;;;;;;1.95;72.76;99689.13;4466898;32;33155;-79
2023/12/11 02:10:48;;;;;;;104.45;29.25;;;;;;;2.20;72.15;99678.59;4466882;32;34471;-79
2023/12/11 02:13:17;;;;;;;99.80;32.42;;;;;;;2.18;72.09;99683.03;4466497;32;33554;-79
2023/12/11 02:15:49;;;;;;;58.58;25.40;;;;;;;2.09;72.27;99668.53;4449872;32;32463;-79
2023/12/11 02:18:21;;;;;;;91.78;28.80;;;;;;;2.12;72.79;99678.03;4467397;32;33726;-79
2023/12/11 02:20:51;;;;;;;78.43;26.12;;;;;;;2.13;72.58;99675.34;4466665;32;34226;-79
2023/12/11 02:23:28;;;;;;;83.53;29.63;;;;;;;2.01;73.55;99682.81;4466053;32;35281;-79
2023/12/11 02:26:15;;;;;;;82.53;27.90;;;;;;;1.78;74.39;99678.44;4465745;32;33760;-79
2023/12/11 02:28:44;;;;;;;88.30;30.25;;;;;;;2.12;73.19;99685.88;4466606;32;33483;-79
2023/12/11 02:31:14;;;;;;;111.53;31.10;;;;;;;2.12;72.78;99686.72;4466291;32;33983;-79
2023/12/11 02:33:44;;;;;;;121.53;30.98;;;;;;;2.17;72.77;99686.53;4465949;32;34743;-79
2023/12/11 02:36:14;;;;;;;104.87;32.22;;;;;;;2.19;73.05;99687.34;4464457;32;33566;-79
2023/12/11 02:38:44;;;;;;;112.95;32.22;;;;;;;2.04;73.36;99680.09;4466400;32;33230;-79
2023/12/11 02:41:15;;;;;;;65.30;27.48;;;;;;;1.87;73.68;99673.75;4467321;32;33765;-79
2023/12/11 02:43:45;;;;;;;67.30;25.60;;;;;;;2.07;72.98;99654.69;4468409;32;33718;-79
2023/12/11 02:46:14;;;;;;;56.40;27.58;;;;;;;1.91;73.84;99645.75;4468158;32;33613;-79
2023/12/11 02:48:50;;;;;;;65.45;26.23;;;;;;;1.78;73.69;99636.66;4468510;32;34434;-79
2023/12/11 02:51:20;;;;;;;75.12;26.75;;;;;;;1.94;73.05;99629.91;4468505;32;33576;-79
2023/12/11 02:53:49;;;;;;;93.18;29.85;;;;;;;1.98;73.38;99618.47;4468064;32;34157;-79
2023/12/11 02:56:19;;;;;;;42.97;23.38;;;;;;;1.81;73.66;99628.69;4466274;32;34512;-79
2023/12/11 02:58:49;;;;;;;76.25;29.42;;;;;;;1.94;73.39;99620.34;4468750;32;33986;-79
2023/12/11 03:01:19;;;;;;;40.47;23.25;;;;;;;1.94;73.15;99619.47;4468802;32;33897;-79
2023/12/11 03:03:48;;;;;;;67.32;23.23;;;;;;;2.01;72.75;99618.34;4468342;32;33214;-79
2023/12/11 03:06:19;;;;;;;123.57;31.35;;;;;;;1.60;74.30;99623.38;4468340;32;34002;-79
2023/12/11 03:08:48;;;;;;;52.90;25.08;;;;;;;1.68;73.69;99623.94;4468505;32;33677;-79
2023/12/11 03:11:19;;;;;;;46.17;22.33;;;;;;;1.79;73.57;99627.91;4468230;32;34039;-79
2023/12/11 03:13:48;;;;;;;47.88;25.60;;;;;;;1.88;73.05;99627.56;4468146;32;34303;-79
2023/12/11 03:16:18;;;;;;;63.90;24.90;;;;;;;1.50;74.04;99624.59;4466000;32;34863;-79
2023/12/11 03:18:55;;;;;;;40.85;21.83;;;;;;;1.76;73.43;99625.41;4468691;32;33499;-79
2023/12/11 03:21:25;;;;;;;84.80;24.27;;;;;;;1.97;73.14;99614.13;4468926;32;33941;-79
2023/12/11 03:23:54;;;;;;;95.07;24.42;;;;;;;1.91;73.24;99603.94;4468227;32;34702;-79
2023/12/11 03:26:25;;;;;;;51.78;23.62;;;;;;;2.11;72.68;99605.78;4467836;32;34259;-79
2023/12/11 03:28:56;;;;;;;74.93;24.60;;;;;;;2.26;72.42;99612.13;4468220;32;33702;-79
2023/12/11 03:31:28;;;;;;;43.85;22.52;;;;;;;2.33;71.93;99622.28;4468189;32;33841;-79
2023/12/11 03:33:58;;;;;;;;;;;;;;;2.13;72.96;99623.06;4468356;32;35494;-79
2023/12/11 03:36:27;;;;;;;76.30;26.20;;;;;;;2.11;73.18;99631.91;4466481;32;33602;-79
2023/12/11 03:38:56;;;;;;;94.53;28.40;;;;;;;2.08;72.87;99626.78;4468164;32;33329;-79
2023/12/11 03:41:30;;;;;;;57.38;25.67;;;;;;;2.16;72.81;99622.97;4468226;32;33541;-79
2023/12/11 03:44:02;;;;;;;55.80;25.50;;;;;;;2.23;72.66;99615.75;4467942;32;34725;-79
2023/12/11 03:46:31;;;;;;;44.22;25.40;;;;;;;2.30;72.82;99627.66;4467806;32;34000;-79
2023/12/11 03:49:00;;;;;;;44.50;23.83;;;;;;;2.59;72.12;99631.72;4468202;32;34419;-79
2023/12/11 03:51:30;;;;;;;36.83;22.17;;;;;;;2.58;71.89;99626.56;4468275;32;34009;-79
2023/12/11 03:54:00;;;;;;;44.53;22.73;;;;;;;2.91;71.00;99619.06;4467165;32;34845;-79
2023/12/11 03:56:31;;;;;;;51.42;24.40;;;;;;;3.12;69.76;99620.75;4466201;32;34456;-79
2023/12/11 03:59:00;;;;;;;99.50;28.70;;;;;;;2.95;70.34;99616.22;4468376;32;33440;-79
2023/12/11 04:01:29;;;;;;;55.67;23.62;;;;;;;2.74;70.75;99630.22;4468322;32;34075;-79
2023/12/11 04:04:00;;;;;;;65.55;23.58;;;;;;;2.82;71.09;99635.16;4468131;32;33953;-79
2023/12/11 04:06:30;;;;;;;58.13;21.75;;;;;;;2.72;71.40;99648.59;4468048;32;33859;-79
2023/12/11 04:09:00;;;;;;;145.70;32.15;;;;;;;2.94;70.95;99632.88;4468003;32;34331;-79
2023/12/11 04:11:29;;;;;;;139.88;33.05;;;;;;;2.81;71.10;99625.56;4467868;32;33858;-79
2023/12/11 04:13:59;;;;;;;192.07;34.90;;;;;;;2.96;70.35;99617.09;4467862;32;33598;-79
2023/12/11 04:16:29;;;;;;;89.62;24.42;;;;;;;2.38;72.41;99617.75;4465890;32;34268;-79
2023/12/11 04:18:58;;;;;;;63.08;25.75;;;;;;;2.53;72.22;99621.47;4468546;32;34394;-79
2023/12/11 04:21:32;;;;;;;68.43;27.50;;;;;;;2.58;72.27;99626.56;4468414;32;33504;-79
2023/12/11 04:24:01;;;;;;;;;;;;;;;2.77;71.48;99606.53;4468007;32;33457;-79
2023/12/11 04:26:31;;;;;;;83.62;27.42;;;;;;;2.38;72.87;99603.81;4467652;32;34287;-79
2023/12/11 04:29:02;;;;;;;108.90;34.30;;;;;;;2.57;72.76;99609.97;4468213;32;33509;-79
2023/12/11 04:31:34;;;;;;;119.85;30.15;;;;;;;2.15;73.50;99600.34;4467722;32;34545;-79
2023/12/11 04:34:03;;;;;;;151.57;35.97;;;;;;;2.19;73.87;99601.94;4467691;32;34079;-79
2023/12/11 04:36:33;;;;;;;108.93;30.95;;;;;;;1.96;73.92;99587.16;4466234;32;34062;-79
2023/12/11 04:39:03;;;;;;;74.10;25.88;;;;;;;2.01;74.94;99576.53;4468216;32;33472;-79
2023/12/11 04:41:32;;;;;;;88.40;29.35;;;;;;;2.14;74.47;99575.13;4468159;32;33863;-79
2023/12/11 04:44:03;;;;;;;70.28;27.37;;;;;;;2.00;74.41;99581.81;4467717;32;33854;-79
2023/12/11 04:46:33;;;;;;;54.70;26.73;;;;;;;2.06;74.96;99577.22;4467415;32;34127;-79
2023/12/11 04:49:02;;;;;;;46.90;25.55;;;;;;;1.94;75.00;99582.87;4468050;32;33584;-79
2023/12/11 04:51:32;;;;;;;81.82;30.60;;;;;;;2.32;73.88;99575.31;4468202;32;34105;-79
2023/12/11 04:54:02;;;;;;;67.28;29.50;;;;;;;2.20;74.05;99595.78;4467620;32;35223;-79
2023/12/11 04:56:33;;;;;;;41.90;25.50;;;;;;;2.09;74.40;99584.06;4465759;32;34890;-79
2023/12/11 04:59:04;;;;;;;45.27;26.80;;;;;;;2.30;73.83;99577.16;4468038;32;34635;-79
2023/12/11 05:01:34;;;;;;;41.70;25.30;;;;;;;2.25;74.32;99597.37;4467786;32;34313;-79
2023/12/11 05:04:04;;;;;;;62.80;31.12;;;;;;;2.58;73.13;99598.63;4466848;32;34223;-79
2023/12/11 05:06:33;;;;;;;48.13;27.48;;;;;;;2.41;73.45;99611.53;4467851;32;34047;-79
2023/12/11 05:09:03;;;;;;;58.92;27.25;;;;;;;2.64;72.63;99600.97;4468008;32;33689;-79
2023/12/11 05:11:32;;;;;;;52.28;26.62;;;;;;;2.40;73.72;99599.38;4467574;32;34029;-79
2023/12/11 05:14:02;;;;;;;45.15;26.33;;;;;;;2.53;73.23;99592.72;4467323;32;33556;-79
2023/12/11 05:16:32;;;;;;;58.58;29.25;;;;;;;2.68;72.58;99580.78;4465595;32;34081;-79
2023/12/11 05:19:06;;;;;;;48.10;27.70;;;;;;;2.38;73.13;99575.06;4467886;32;33561;-80
2023/12/11 05:21:35;;;;;;;79.47;31.12;;;;;;;2.81;72.25;99575.88;4467936;32;33448;-79
2023/12/11 05:24:05;;;;;;;59.00;27.65;;;;;;;2.37;73.49;99581.19;4467151;32;33813;-79
2023/12/11 05:26:35;;;;;;;46.20;30.70;;;;;;;2.14;74.29;99584.75;4467129;32;34645;-79
2023/12/11 05:29:04;;;;;;;54.35;29.33;;;;;;;2.39;73.81;99595.06;4467616;32;33257;-79
2023/12/11 05:31:38;;;;;;;54.50;29.85;;;;;;;2.41;73.80;99595.84;4467599;32;34867;-79
2023/12/11 05:34:07;;;;;;;73.53;33.88;;;;;;;2.37;73.66;99597.72;4467039;32;33273;-79
2023/12/11 05:36:36;;;;;;;56.55;32.50;;;;;;;2.25;74.33;99590.37;4451430;32;33036;-79
2023/12/11 05:39:06;;;;;;;60.45;33.83;;;;;;;2.25;74.79;99576.47;4467792;32;34001;-79
2023/12/11 05:41:36;;;;;;;62.30;33.65;;;;;;;2.15;75.15;99558.53;4461337;32;34053;-79
2023/12/11 05:44:05;;;;;;;74.43;35.25;;;;;;;1.80;76.50;99546.03;4467539;32;34591;-79
2023/12/11 05:46:40;;;;;;;71.65;34.53;;;;;;;2.13;75.18;99536.81;4467229;32;34059;-79
2023/12/11 05:49:09;;;;;;;65.43;34.22;;;;;;;1.81;76.82;99511.16;4467579;32;33412;-79
2023/12/11 05:51:39;;;;;;;71.25;32.45;;;;;;;1.80;76.71;99527.75;4468100;32;34314;-79
2023/12/11 05:54:10;;;;;;;77.45;36.92;;;;;;;1.62;77.36;99586.75;4467369;32;49141;-79
2023/12/11 05:56:39;;;;;;;51.78;29.70;;;;;;;1.56;78.01;99563.50;4465683;32;33856;-79
2023/12/11 05:59:09;;;;;;;58.70;34.67;;;;;;;1.66;77.67;99563.09;4467617;32;33982;-79
2023/12/11 06:01:43;;;;;;;61.40;32.05;;;;;;;2.14;75.93;99580.38;4461673;32;34250;-79
2023/12/11 06:04:12;;;;;;;49.60;33.45;;;;;;;1.82;77.08;99584.25;4467444;32;34151;-79
2023/12/11 06:06:42;;;;;;;59.08;29.50;;;;;;;2.10;76.22;99581.41;4452565;32;34918;-79
2023/12/11 06:09:13;;;;;;;55.83;32.65;;;;;;;2.04;76.33;99571.19;4453341;32;34658;-79
2023/12/11 06:11:43;;;;;;;60.12;33.83;;;;;;;1.89;77.00;99562.19;4467035;32;34679;-79
2023/12/11 06:14:13;;;;;;;61.95;39.28;;;;;;;2.15;75.99;99560.31;4451296;32;32702;-79
2023/12/11 06:16:47;;;;;;;55.83;33.17;;;;;;;1.84;76.85;99565.87;4467107;32;32275;-79
2023/12/11 06:19:16;;;;;;;55.45;30.08;;;;;;;2.14;76.06;99582.13;4469362;32;34399;-79
2023/12/11 06:21:46;;;;;;;45.60;27.98;;;;;;;2.32;75.45;99598.84;4468972;32;34393;-79
2023/12/11 06:24:18;;;;;;;51.97;31.02;;;;;;;2.54;74.78;99609.28;4468844;32;34138;-79
2023/12/11 06:26:49;;;;;;;57.28;31.25;;;;;;;2.08;76.10;99611.13;4468665;32;34261;-79
2023/12/11 06:29:18;;;;;;;43.95;29.63;;;;;;;2.10;76.37;99623.22;4469324;32;33484;-79
2023/12/11 06:31:52;;;;;;;50.28;29.75;;;;;;;2.34;75.70;99631.00;4469152;32;34407;-79
2023/12/11 06:34:21;;;;;;;45.88;28.92;;;;;;;2.61;75.03;99629.91;4466664;32;33608;-79
2023/12/11 06:36:50;;;;;;;53.60;32.58;;;;;;;2.80;74.12;99616.88;4468852;32;34633;-79
2023/12/11 06:39:20;;;;;;;51.50;30.00;;;;;;;2.73;74.19;99610.19;4469671;32;34466;-79
2023/12/11 06:41:50;;;;;;;45.90;26.85;;;;;;;2.61;74.84;99598.50;4468705;32;33773;-79
2023/12/11 06:44:19;;;;;;;45.90;29.73;;;;;;;2.90;73.83;99578.09;4468718;32;35600;-79
2023/12/11 06:46:49;;;;;;;46.20;29.73;;;;;;;2.53;75.02;99556.09;4468502;32;33999;-79
2023/12/11 06:49:20;;;;;;;49.97;28.17;;;;;;;2.25;75.77;99551.16;4454469;32;33961;-79
2023/12/11 06:51:49;;;;;;;54.83;31.15;;;;;;;2.11;76.86;99567.41;4468809;32;34982;-79
2023/12/11 06:54:21;;;;;;;52.15;30.48;;;;;;;2.09;76.47;99564.00;4452962;32;32447;-79
2023/12/11 06:56:52;;;;;;;50.60;29.65;;;;;;;2.14;77.18;99580.38;4468778;32;33967;-79
2023/12/11 06:59:21;;;;;;;55.42;31.15;;;;;;;2.06;77.07;99584.16;4453742;32;34242;-79
2023/12/11 07:01:51;;;;;;;50.00;32.25;;;;;;;2.21;76.71;99587.03;4438876;32;32508;-79
2023/12/11 07:04:23;;;;;;;53.50;31.48;;;;;;;2.25;76.60;99573.84;4453184;32;34030;-79
2023/12/11 07:06:52;;;;;;;56.28;33.30;;;;;;;2.02;77.31;99564.31;4453041;32;33960;-79
2023/12/11 07:09:22;;;;;;;54.58;32.33;;;;;;;2.22;76.71;99578.28;4454647;32;35068;-79
2023/12/11 07:11:51;;;;;;;57.50;33.58;;;;;;;2.08;77.55;99577.13;4453068;32;34158;-79
2023/12/11 07:14:23;;;;;;;53.70;30.08;;;;;;;2.01;77.64;99588.75;4464780;32;33761;-79
2023/12/11 07:16:53;;;;;;;59.47;33.87;;;;;;;2.34;76.65;99597.03;4468586;32;34286;-79
2023/12/11 07:19:23;;;;;;;57.28;35.05;;;;;;;2.15;77.14;99602.97;4469555;32;33529;-79
2023/12/11 07:21:53;;;;;;;57.00;41.25;;;;;;;2.44;75.97;99607.03;4468889;32;33572;-78
2023/12/11 07:24:22;;;;;;;44.55;33.67;;;;;;;2.43;76.18;99602.72;4468652;32;35497;-79
2023/12/11 07:26:52;;;;;;;47.08;30.73;;;;;;;2.39;76.29;99595.06;4467835;32;34237;-79
2023/12/11 07:29:22;;;;;;;43.13;29.98;;;;;;;2.51;76.27;99581.47;4468424;32;34429;-79
2023/12/11 07:31:52;;;;;;;46.50;28.60;;;;;;;2.69;75.34;99578.09;4468402;32;33652;-79
2023/12/11 07:34:23;;;;;;;44.60;30.45;;;;;;;3.03;74.26;99608.06;4466458;32;35412;-79
2023/12/11 07:36:52;;;;;;;47.10;28.98;;;;;;;2.85;74.60;99606.22;4468376;32;35266;-79
2023/12/11 07:39:21;;;;;;;45.22;30.00;;;;;;;2.84;75.18;99607.13;4469254;32;34975;-79
2023/12/11 07:41:50;;;;;;;52.35;28.65;;;;;;;3.04;74.28;99601.91;4468905;32;33456;-79
2023/12/11 07:44:19;;;;;;;46.05;27.20;;;;;;;3.22;73.86;99602.03;4468686;32;34718;-79
2023/12/11 07:46:49;;;;;;;37.20;26.87;;;;;;;3.29;73.62;99593.84;4468242;32;34212;-79
2023/12/11 07:49:19;;;;;;;53.63;29.67;;;;;;;3.38;73.52;99590.81;4468705;32;33667;-79
2023/12/11 07:51:49;;;;;;;71.78;36.80;;;;;;;3.60;72.52;99593.31;4468706;32;34516;-79
2023/12/11 07:54:21;;;;;;;46.15;29.73;;;;;;;3.66;72.33;99587.78;4466854;32;34550;-79
2023/12/11 07:56:50;;;;;;;46.28;27.60;;;;;;;3.55;72.17;99569.09;4468922;32;33395;-79
2023/12/11 07:59:19;;;;;;;40.17;25.33;;;;;;;3.76;71.75;99566.37;4469372;32;33669;-79
2023/12/11 08:01:49;;;;;;;40.00;24.90;;;;;;;3.68;72.14;99572.84;4469383;32;33950;-79
2023/12/11 08:04:18;;;;;;;38.00;22.98;;;;;;;3.85;71.47;99572.06;4454464;32;33410;-79
2023/12/11 08:06:50;;;;;;;39.38;26.35;;;;;;;3.69;71.68;99571.94;4468830;32;34431;-79
2023/12/11 08:09:19;;;;;;;52.10;32.75;;;;;;;3.39;72.26;99570.69;4469221;32;33645;-79
2023/12/11 08:11:50;;;;;;;51.42;30.42;;;;;;;3.16;73.74;99549.00;4469537;32;33642;-79
2023/12/11 08:14:20;;;;;;;44.47;28.52;;;;;;;2.94;74.60;99537.81;4466928;32;33643;-79
2023/12/11 08:16:50;;;;;;;55.83;28.27;;;;;;;3.15;74.28;99534.22;4469170;32;33672;-79
2023/12/11 08:19:19;;;;;;;47.17;28.05;;;;;;;3.33;73.43;99529.94;4469326;32;33871;-79
2023/12/11 08:21:50;;;;;;;77.62;30.40;;;;;;;3.42;73.06;99526.03;4468952;32;33956;-79
2023/12/11 08:24:19;;;;;;;72.78;31.98;;;;;;;3.31;73.49;99513.44;4469241;32;34247;-79
2023/12/11 08:26:49;;;;;;;50.03;29.27;;;;;;;2.96;74.86;99502.78;4468862;32;34174;-79
2023/12/11 08:29:18;;;;;;;53.28;30.60;;;;;;;3.03;74.75;99499.91;4469151;32;35771;-79
2023/12/11 08:31:48;;;;;;;60.67;29.98;;;;;;;2.99;75.12;99480.88;4468903;32;33993;-79
2023/12/11 08:34:19;;;;;;;52.03;29.55;;;;;;;3.24;74.09;99480.59;4466539;32;33951;-79
2023/12/11 08:36:50;;;;;;;56.77;31.87;;;;;;;3.00;74.73;99469.47;4468467;32;33324;-79
2023/12/11 08:39:19;;;;;;;53.58;37.10;;;;;;;3.18;74.26;99479.12;4469136;32;33267;-79
2023/12/11 08:41:49;;;;;;;48.03;29.52;;;;;;;3.40;74.11;99478.97;4469004;32;34156;-80
2023/12/11 08:44:18;;;;;;;62.35;38.20;;;;;;;3.32;74.16;99482.84;4468425;32;33257;-79
2023/12/11 08:46:47;;;;;;;55.95;32.55;;;;;;;3.54;73.18;99494.03;4468278;32;34764;-79
2023/12/11 08:49:17;;;;;;;42.28;26.42;;;;;;;3.56;73.19;99489.56;4468474;32;33408;-79
2023/12/11 08:51:48;;;;;;;48.83;27.40;;;;;;;3.39;74.14;99494.75;4468535;32;33678;-79
2023/12/11 08:54:18;;;;;;;47.25;29.67;;;;;;;3.59;73.45;99501.69;4466964;32;33910;-79
2023/12/11 08:56:49;;;;;;;52.45;38.25;;;;;;;3.79;72.63;99512.06;4454101;32;32145;-80
2023/12/11 08:59:19;;;;;;;47.58;29.95;;;;;;;3.75;72.29;99522.75;4469042;32;33553;-79
2023/12/11 09:01:49;;;;;;;43.08;27.50;;;;;;;3.81;72.54;99518.09;4468860;32;33402;-79
2023/12/11 09:04:19;;;;;;;44.45;27.05;;;;;;;3.79;72.82;99517.31;4468464;32;34084;-80
2023/12/11 09:06:49;;;;;;;67.45;44.72;;;;;;;3.74;72.70;99514.06;4467913;32;34353;-80
2023/12/11 09:09:19;;;;;;;46.15;31.00;;;;;;;3.68;73.16;99489.00;4469126;32;34397;-80
2023/12/11 09:11:49;;;;;;;42.50;26.00;;;;;;;3.78;72.87;99481.53;4468734;32;33770;-79
2023/12/11 09:14:19;;;;;;;42.88;27.42;;;;;;;4.10;71.59;99479.12;4452044;32;34054;-79
2023/12/11 09:16:49;;;;;;;44.40;26.58;;;;;;;4.00;71.83;99485.72;4467850;32;34427;-80
2023/12/11 09:19:18;;;;;;;41.35;25.08;;;;;;;3.80;72.65;99503.31;4469046;32;33338;-80
2023/12/11 09:22:03;;;;;;;37.97;26.52;;;;;;;4.13;71.72;99489.47;4468900;32;34635;-79
2023/12/11 09:24:34;;;;;;;49.90;29.65;;;;;;;4.38;71.11;99491.72;4469129;32;34055;-80
2023/12/11 09:27:05;;;;;;;43.22;26.95;;;;;;;4.62;70.05;99497.47;4468070;32;34071;-80
2023/12/11 09:29:37;;;;;;;40.92;26.60;;;;;;;4.50;70.19;99493.72;4462504;32;33535;-80
2023/12/11 09:32:14;;;;;;;39.83;26.58;;;;;;;4.45;69.97;99482.59;4467925;32;34112;-80
2023/12/11 09:34:44;;;;;;;43.55;27.27;;;;;;;4.58;69.74;99472.34;4460049;32;34118;-79
2023/12/11 09:37:15;;;;;;;48.83;31.92;;;;;;;4.35;70.39;99478.75;4467338;32;34464;-79
2023/12/11 09:39:48;;;;;;;45.67;31.52;;;;;;;4.50;69.94;99475.34;4467862;32;33490;-79
2023/12/11 09:42:18;;;;;;;50.30;35.35;;;;;;;4.44;69.61;99473.91;4468744;32;33928;-80
2023/12/11 09:44:49;;;;;;;39.65;26.45;;;;;;;4.52;73.94;99473.50;4469143;32;34075;-80
2023/12/11 09:47:22;;;;;;;44.63;28.67;;;;;;;5.72;80.53;99467.94;4469110;32;33869;-80
2023/12/11 09:49:52;;;;;;;34.75;25.40;;;;;;;6.88;77.46;99471.66;4469397;32;33511;-80
2023/12/11 09:52:23;;;;;;;40.42;29.77;;;;;;;7.32;69.78;99472.47;4470698;32;33884;-80
2023/12/11 09:54:53;;;;;;;35.33;26.30;;;;;;;7.71;65.24;99470.91;4468252;32;33943;-79
2023/12/11 09:57:23;;;;;;;38.70;30.35;;;;;;;7.48;61.79;99461.81;4470283;32;34451;-80
2023/12/11 09:59:53;;;;;;;36.83;26.50;;;;;;;6.95;61.72;99460.75;4456179;32;32073;-80
2023/12/11 10:02:25;;;;;;;38.08;25.62;;;;;;;6.79;62.56;99460.84;4470100;32;34310;-80
2023/12/11 10:05:04;;;;;;;33.10;25.35;;;;;;;6.68;62.36;99456.22;4470006;32;33815;-80
2023/12/11 10:07:33;;;;;;;37.85;26.52;;;;;;;6.55;62.78;99461.38;4469785;32;33989;-80
2023/12/11 10:10:27;;;;;;;40.70;27.10;;;;;;;6.51;nan;99459.87;4469737;32;34885;-80
2023/12/11 10:12:57;;;;;;;48.08;30.98;;;;;;;6.00;63.91;99459.34;4469727;32;34265;-80
2023/12/11 10:15:29;;;;;;;34.35;24.92;;;;;;;5.67;64.99;99451.56;4467927;32;35353;-80
2023/12/11 10:18:05;;;;;;;38.22;26.20;;;;;;;5.78;65.36;99446.56;4469819;32;33902;-80
2023/12/11 10:20:36;;;;;;;37.75;26.70;;;;;;;5.82;65.43;99444.56;4449783;32;32825;-80
2023/12/11 10:23:15;;;;;;;39.22;26.17;;;;;;;5.65;65.60;99456.91;4470113;32;35001;-80
2023/12/11 10:25:49;;;;;;;40.50;26.05;;;;;;;5.55;65.58;99460.16;4469593;32;34551;-80
2023/12/11 10:28:21;;;;;;;36.83;25.95;;;;;;;5.54;66.11;99471.56;4469929;32;34712;-80
2023/12/11 10:30:55;;;;;;;42.97;30.73;;;;;;;5.57;65.91;99453.84;4469752;32;33675;-79
2023/12/11 10:33:26;;;;;;;47.85;34.13;;;;;;;5.68;65.04;99445.37;4469755;32;34243;-80
2023/12/11 10:36:11;;;;;;;42.78;29.67;;;;;;;5.55;65.52;99439.13;4467949;32;33899;-80
2023/12/11 10:38:41;;;;;;;40.35;30.58;;;;;;;5.51;65.89;99425.31;4469878;32;34264;-80
2023/12/11 10:41:26;;;;;;;38.85;28.02;;;;;;;5.68;65.82;99412.03;4470096;32;33723;-80
2023/12/11 10:43:55;;;;;;;73.35;64.97;;;;;;;5.64;66.15;99402.66;4470528;32;34308;-80
2023/12/11 10:46:45;;;;;;;48.65;37.33;;;;;;;5.00;66.56;99384.37;4470065;32;33760;-80
2023/12/11 10:49:14;;;;;;;47.55;34.67;;;;;;;5.29;66.94;99378.34;4470175;32;34469;-80
2023/12/11 10:51:44;;;;;;;41.85;31.65;;;;;;;5.15;67.25;99394.91;4470275;32;33537;-80
2023/12/11 10:54:13;;;;;;;40.70;31.85;;;;;;;5.48;66.43;99391.31;4469536;32;34006;-80
2023/12/11 10:56:48;;;;;;;42.97;29.48;;;;;;;5.62;66.09;99393.13;4469495;32;33156;-80
2023/12/11 10:59:18;;;;;;;40.65;29.73;;;;;;;5.72;65.89;99414.50;4470576;32;34060;-80
2023/12/11 11:01:49;;;;;;;42.53;29.37;;;;;;;5.49;66.31;99411.38;4469993;32;33528;-80
2023/12/11 11:04:21;;;;;;;45.53;35.85;;;;;;;5.52;66.14;99413.84;4469604;32;33000;-80
2023/12/11 11:06:57;;;;;;;37.65;25.55;;;;;;;5.65;65.86;99408.75;4469140;32;34507;-80
2023/12/11 11:09:33;;;;;;;39.03;26.90;;;;;;;5.57;66.10;99409.19;4470374;32;35005;-80
2023/12/11 11:12:10;;;;;;;41.22;27.40;;;;;;;5.78;65.76;99396.63;4469909;32;33671;-80
2023/12/11 11:14:47;;;;;;;38.60;26.50;;;;;;;5.48;66.23;99390.47;4467644;32;33911;-80
2023/12/11 11:17:17;;;;;;;49.90;37.22;;;;;;;5.48;65.92;99372.06;4469331;32;34949;-80
2023/12/11 11:20:12;;;;;;;43.10;29.83;;;;;;;5.84;65.63;99372.56;4469635;32;33842;-80
2023/12/11 11:22:42;;;;;;;41.13;29.00;;;;;;;5.60;66.05;99364.34;4465152;32;33247;-80
2023/12/11 11:25:31;;;;;;;45.33;28.73;;;;;;;5.64;65.96;99362.38;4469161;32;33946;-81
2023/12/11 11:28:02;;;;;;;51.53;29.92;;;;;;;5.66;65.89;99360.50;4469181;32;33946;-80
2023/12/11 11:30:50;;;;;;;52.40;43.63;;;;;;;5.49;67.00;99336.97;4470278;32;33503;-81
2023/12/11 11:33:21;;;;;;;43.65;29.52;;;;;;;5.46;66.56;99329.25;4469875;32;48717;-81
2023/12/11 11:35:53;;;;;;;48.28;34.08;;;;;;;5.76;65.90;99329.28;4467655;32;34155;-81
2023/12/11 11:38:53;;;;;;;49.28;33.15;;;;;;;5.21;67.34;99320.16;4469303;32;35611;-80
2023/12/11 11:41:25;;;;;;;52.40;33.63;;;;;;;5.64;66.16;99320.31;4469517;32;34333;-80